createdAt,value
2018-04-19T00:01:17.926Z,0.00
2018-04-19T00:02:17.914Z,0.00
2018-04-19T00:04:11.483Z,0.00
2018-04-19T00:05:11.427Z,0.00
2018-04-19T00:07:05.095Z,0.00
2018-04-19T00:08:05.079Z,0.00
2018-04-19T00:09:58.835Z,0.00
2018-04-19T00:10:58.781Z,0.00
2018-04-19T00:12:52.367Z,0.00
2018-04-19T00:13:52.355Z,0.00
2018-04-19T00:15:46.023Z,0.00
2018-04-19T00:16:45.987Z,0.00
2018-04-19T00:18:39.688Z,0.00
2018-04-19T00:19:39.652Z,0.00
2018-04-19T00:21:33.252Z,0.00
2018-04-19T00:22:33.214Z,0.00
2018-04-19T00:24:28.656Z,0.00
2018-04-19T00:25:28.012Z,0.00
2018-04-19T00:27:21.688Z,0.00
2018-04-19T00:28:21.686Z,0.00
2018-04-19T00:30:16.113Z,0.00
2018-04-19T00:31:15.385Z,0.00
2018-04-19T00:33:09.068Z,0.00
2018-04-19T00:34:09.029Z,0.00
2018-04-19T00:36:02.578Z,0.00
2018-04-19T00:37:02.536Z,0.00
2018-04-19T00:38:56.120Z,0.00
2018-04-19T00:39:56.098Z,0.00
2018-04-19T00:41:50.549Z,0.00
2018-04-19T00:42:49.651Z,0.00
2018-04-19T00:44:43.224Z,0.00
2018-04-19T00:45:43.207Z,0.00
2018-04-19T00:47:37.648Z,0.00
2018-04-19T00:48:36.745Z,0.00
2018-04-19T00:50:31.196Z,0.00
2018-04-19T00:51:30.362Z,0.00
2018-04-19T00:53:23.940Z,0.00
2018-04-19T00:54:23.924Z,0.00
2018-04-19T00:56:17.632Z,0.00
2018-04-19T00:57:17.604Z,0.00
2018-04-19T00:59:12.041Z,0.00
2018-04-19T01:00:11.283Z,0.00
2018-04-19T01:02:05.723Z,0.00
2018-04-19T01:03:04.905Z,0.00
2018-04-19T01:04:58.591Z,0.00
2018-04-19T01:05:58.531Z,0.00
2018-04-19T01:07:52.399Z,0.00
2018-04-19T01:08:52.163Z,0.00
2018-04-19T01:09:52.162Z,0.00
2018-04-19T01:10:52.157Z,0.00
2018-04-19T01:11:52.150Z,0.00
2018-04-19T01:12:52.144Z,0.00
2018-04-19T01:13:52.140Z,0.00
2018-04-19T01:14:52.142Z,0.00
2018-04-19T01:15:52.133Z,0.00
2018-04-19T01:16:52.136Z,0.00
2018-04-19T01:17:52.123Z,0.00
2018-04-19T01:18:52.123Z,0.00
2018-04-19T01:19:52.114Z,0.00
2018-04-19T01:20:52.107Z,0.00
2018-04-19T01:21:52.097Z,0.00
2018-04-19T01:22:52.100Z,0.00
2018-04-19T01:23:52.089Z,0.00
2018-04-19T01:24:52.092Z,0.00
2018-04-19T01:25:52.081Z,0.00
2018-04-19T01:26:52.075Z,0.00
2018-04-19T01:27:52.074Z,0.00
2018-04-19T01:28:52.069Z,0.00
2018-04-19T01:29:52.065Z,0.00
2018-04-19T01:30:52.053Z,0.00
2018-04-19T01:31:52.053Z,0.00
2018-04-19T01:32:52.044Z,0.00
2018-04-19T01:33:52.279Z,0.00
2018-04-19T01:34:52.037Z,0.00
2018-04-19T01:35:52.034Z,0.00
2018-04-19T01:36:52.030Z,0.00
2018-04-19T01:37:52.027Z,0.00
2018-04-19T01:38:52.022Z,0.00
2018-04-19T01:39:52.009Z,0.00
2018-04-19T01:40:52.015Z,0.00
2018-04-19T01:41:52.001Z,0.00
2018-04-19T01:42:51.997Z,0.00
2018-04-19T01:43:51.993Z,0.00
2018-04-19T01:44:51.990Z,0.00
2018-04-19T01:45:51.988Z,0.00
2018-04-19T01:46:51.974Z,0.00
2018-04-19T01:47:51.968Z,0.00
2018-04-19T01:48:51.964Z,0.00
2018-04-19T01:49:51.963Z,0.00
2018-04-19T01:50:51.957Z,0.00
2018-04-19T01:51:51.950Z,0.00
2018-04-19T01:52:51.948Z,0.00
2018-04-19T01:53:51.941Z,0.00
2018-04-19T01:54:51.935Z,0.00
2018-04-19T01:55:51.937Z,0.00
2018-04-19T01:56:51.927Z,0.00
2018-04-19T01:57:51.924Z,0.00
2018-04-19T01:58:51.915Z,0.00
2018-04-19T01:59:51.956Z,0.00
2018-04-19T02:00:51.905Z,0.00
2018-04-19T02:01:51.902Z,0.00
2018-04-19T02:02:51.891Z,0.00
2018-04-19T02:03:51.885Z,0.00
2018-04-19T02:04:51.885Z,0.00
2018-04-19T02:05:51.882Z,0.00
2018-04-19T02:06:51.887Z,0.00
2018-04-19T02:07:51.865Z,0.00
2018-04-19T02:08:51.862Z,0.00
2018-04-19T02:09:51.858Z,0.00
2018-04-19T02:10:51.851Z,0.00
2018-04-19T02:11:51.852Z,0.00
2018-04-19T02:12:51.843Z,0.00
2018-04-19T02:13:51.838Z,0.00
2018-04-19T02:14:51.829Z,0.00
2018-04-19T02:15:51.823Z,0.00
2018-04-19T02:16:51.826Z,0.00
2018-04-19T02:17:51.821Z,0.00
2018-04-19T02:18:51.815Z,0.00
2018-04-19T02:19:51.811Z,0.00
2018-04-19T02:20:51.801Z,0.00
2018-04-19T02:21:51.798Z,0.00
2018-04-19T02:22:51.788Z,0.00
2018-04-19T02:23:51.786Z,0.00
2018-04-19T02:24:51.775Z,0.00
2018-04-19T02:25:51.776Z,0.00
2018-04-19T02:26:51.772Z,0.00
2018-04-19T02:27:51.767Z,0.00
2018-04-19T02:28:51.756Z,0.00
2018-04-19T02:29:51.751Z,0.00
2018-04-19T02:30:51.750Z,0.00
2018-04-19T02:31:51.743Z,0.00
2018-04-19T02:32:51.740Z,0.00
2018-04-19T02:33:51.738Z,0.00
2018-04-19T02:34:51.726Z,0.00
2018-04-19T02:35:51.720Z,0.00
2018-04-19T02:36:51.714Z,0.00
2018-04-19T02:37:51.718Z,0.00
2018-04-19T02:38:51.711Z,0.00
2018-04-19T02:39:51.699Z,0.00
2018-04-19T02:40:51.696Z,0.00
2018-04-19T02:41:51.690Z,0.00
2018-04-19T02:42:51.681Z,0.00
2018-04-19T02:43:51.676Z,0.00
2018-04-19T02:44:51.673Z,0.00
2018-04-19T02:45:51.668Z,0.00
2018-04-19T02:46:51.661Z,0.00
2018-04-19T02:47:51.657Z,0.00
2018-04-19T02:48:51.659Z,0.00
2018-04-19T02:49:51.643Z,0.00
2018-04-19T02:50:51.639Z,0.00
2018-04-19T02:51:51.633Z,0.00
2018-04-19T02:52:51.630Z,0.00
2018-04-19T02:53:51.625Z,0.00
2018-04-19T02:54:51.620Z,0.00
2018-04-19T02:55:51.617Z,0.00
2018-04-19T02:56:51.604Z,0.00
2018-04-19T02:57:51.601Z,0.00
2018-04-19T02:58:51.603Z,0.00
2018-04-19T02:59:51.592Z,0.00
2018-04-19T03:00:51.585Z,0.00
2018-04-19T03:01:51.581Z,0.00
2018-04-19T03:02:51.574Z,0.00
2018-04-19T03:03:51.569Z,0.00
2018-04-19T03:04:51.563Z,0.00
2018-04-19T03:05:51.564Z,0.00
2018-04-19T03:06:51.558Z,0.00
2018-04-19T03:07:51.547Z,0.00
2018-04-19T03:08:51.543Z,0.00
2018-04-19T03:09:51.539Z,0.00
2018-04-19T03:10:51.530Z,0.00
2018-04-19T03:11:51.523Z,0.00
2018-04-19T03:12:51.519Z,0.00
2018-04-19T03:13:51.516Z,0.00
2018-04-19T03:14:51.511Z,0.00
2018-04-19T03:15:51.504Z,0.00
2018-04-19T03:16:51.497Z,0.00
2018-04-19T03:17:51.489Z,0.00
2018-04-19T03:18:51.485Z,0.00
2018-04-19T03:19:51.477Z,0.00
2018-04-19T03:20:51.471Z,0.00
2018-04-19T03:21:51.465Z,0.00
2018-04-19T03:22:51.464Z,0.00
2018-04-19T03:23:51.457Z,0.00
2018-04-19T03:24:51.449Z,0.00
2018-04-19T03:25:51.445Z,0.00
2018-04-19T03:26:51.445Z,0.00
2018-04-19T03:27:51.437Z,0.00
2018-04-19T03:28:51.432Z,0.00
2018-04-19T03:29:51.424Z,0.00
2018-04-19T03:30:51.415Z,0.00
2018-04-19T03:31:51.412Z,0.00
2018-04-19T03:32:51.407Z,0.00
2018-04-19T03:33:51.405Z,0.00
2018-04-19T03:34:51.398Z,0.00
2018-04-19T03:35:51.393Z,0.00
2018-04-19T03:36:51.389Z,0.00
2018-04-19T03:37:51.382Z,0.00
2018-04-19T03:38:51.369Z,0.00
2018-04-19T03:39:51.363Z,0.00
2018-04-19T03:40:51.361Z,0.00
2018-04-19T03:41:51.361Z,0.00
2018-04-19T03:42:51.355Z,0.00
2018-04-19T03:43:51.344Z,0.00
2018-04-19T03:44:51.341Z,0.00
2018-04-19T03:45:51.333Z,0.00
2018-04-19T03:46:51.331Z,0.00
2018-04-19T03:47:51.319Z,0.00
2018-04-19T03:48:51.317Z,0.00
2018-04-19T03:49:51.313Z,0.00
2018-04-19T03:50:51.307Z,0.00
2018-04-19T03:51:51.294Z,4.00
2018-04-19T03:52:51.293Z,4.00
2018-04-19T03:53:51.340Z,0.00
2018-04-19T03:54:51.284Z,4.00
2018-04-19T03:55:51.279Z,4.00
2018-04-19T03:56:51.265Z,4.00
2018-04-19T03:57:51.262Z,4.00
2018-04-19T03:58:51.259Z,4.00
2018-04-19T03:59:51.250Z,8.00
2018-04-19T04:00:51.247Z,8.00
2018-04-19T04:01:51.257Z,8.00
2018-04-19T04:02:51.233Z,12.00
2018-04-19T04:03:51.231Z,16.00
2018-04-19T04:04:51.225Z,16.00
2018-04-19T04:05:51.220Z,20.00
2018-04-19T04:06:51.210Z,24.00
2018-04-19T04:07:51.206Z,24.00
2018-04-19T04:08:51.242Z,32.00
2018-04-19T04:09:51.196Z,36.00
2018-04-19T04:10:51.192Z,40.00
2018-04-19T04:11:51.188Z,48.00
2018-04-19T04:12:51.185Z,52.00
2018-04-19T04:13:51.170Z,60.00
2018-04-19T04:14:51.164Z,68.00
2018-04-19T04:15:51.165Z,76.00
2018-04-19T04:16:51.153Z,84.00
2018-04-19T04:17:51.152Z,96.00
2018-04-19T04:18:51.145Z,108.00
2018-04-19T04:19:51.137Z,120.00
2018-04-19T04:20:51.129Z,136.00
2018-04-19T04:21:51.126Z,148.00
2018-04-19T04:22:51.121Z,168.00
2018-04-19T04:23:51.115Z,184.00
2018-04-19T04:24:51.110Z,204.00
2018-04-19T04:25:51.101Z,224.00
2018-04-19T04:26:51.094Z,240.00
2018-04-19T04:27:51.088Z,260.00
2018-04-19T04:28:51.090Z,284.00
2018-04-19T04:29:51.084Z,308.00
2018-04-19T04:30:51.073Z,332.00
2018-04-19T04:31:51.069Z,360.00
2018-04-19T04:32:51.061Z,388.00
2018-04-19T04:33:51.055Z,416.00
2018-04-19T04:34:51.046Z,448.00
2018-04-19T04:35:51.040Z,472.00
2018-04-19T04:36:51.036Z,504.00
2018-04-19T04:37:51.030Z,536.00
2018-04-19T04:38:51.030Z,568.00
2018-04-19T04:39:51.017Z,600.00
2018-04-19T04:40:51.015Z,632.00
2018-04-19T04:41:51.025Z,664.00
2018-04-19T04:42:51.003Z,700.00
2018-04-19T04:43:50.995Z,736.00
2018-04-19T04:44:50.989Z,768.00
2018-04-19T04:45:50.985Z,804.00
2018-04-19T04:46:50.978Z,844.00
2018-04-19T04:47:50.971Z,876.00
2018-04-19T04:48:50.962Z,912.00
2018-04-19T04:49:50.960Z,952.00
2018-04-19T04:50:50.955Z,988.00
2018-04-19T04:51:50.948Z,1032.00
2018-04-19T04:52:50.943Z,1136.00
2018-04-19T04:53:50.933Z,1320.00
2018-04-19T04:54:50.928Z,1424.00
2018-04-19T04:55:50.924Z,1484.00
2018-04-19T04:56:50.919Z,1576.00
2018-04-19T04:57:50.908Z,1660.00
2018-04-19T04:58:50.905Z,1744.00
2018-04-19T04:59:50.895Z,1832.00
2018-04-19T05:00:50.895Z,1916.00
2018-04-19T05:01:50.884Z,2008.00
2018-04-19T05:02:50.883Z,2100.00
2018-04-19T05:03:50.875Z,2192.00
2018-04-19T05:04:50.871Z,2272.00
2018-04-19T05:05:50.863Z,2348.00
2018-04-19T05:06:50.861Z,2440.00
2018-04-19T05:07:50.850Z,2544.00
2018-04-19T05:08:50.844Z,2640.00
2018-04-19T05:09:50.839Z,2748.00
2018-04-19T05:10:50.841Z,2856.00
2018-04-19T05:11:50.832Z,2976.00
2018-04-19T05:12:50.829Z,3028.00
2018-04-19T05:13:50.818Z,3112.00
2018-04-19T05:14:50.815Z,3300.00
2018-04-19T05:15:50.808Z,3452.00
2018-04-19T05:16:50.804Z,3548.00
2018-04-19T05:17:50.817Z,3636.00
2018-04-19T05:18:50.798Z,3744.00
2018-04-19T05:19:50.790Z,3816.00
2018-04-19T05:20:50.786Z,3920.00
2018-04-19T05:21:50.777Z,4080.00
2018-04-19T05:22:50.773Z,4204.00
2018-04-19T05:23:50.771Z,4332.00
2018-04-19T05:24:50.773Z,4448.00
2018-04-19T05:25:50.767Z,4584.00
2018-04-19T05:26:50.761Z,4728.00
2018-04-19T05:27:50.756Z,4836.00
2018-04-19T05:28:50.747Z,4996.00
2018-04-19T05:29:50.746Z,5148.00
2018-04-19T05:30:50.744Z,5268.00
2018-04-19T05:31:50.736Z,5372.00
2018-04-19T05:32:50.738Z,5452.00
2018-04-19T05:33:50.732Z,5340.00
2018-04-19T05:34:51.566Z,4696.00
2018-04-19T05:35:50.725Z,3544.00
2018-04-19T05:36:50.719Z,2988.00
2018-04-19T05:37:50.715Z,3248.00
2018-04-19T05:38:50.713Z,3368.00
2018-04-19T05:39:50.711Z,3316.00
2018-04-19T05:40:50.706Z,3560.00
2018-04-19T05:41:50.702Z,4008.00
2018-04-19T05:42:50.695Z,4920.00
2018-04-19T05:43:50.716Z,5520.00
2018-04-19T05:44:50.691Z,5616.00
2018-04-19T05:45:50.695Z,6204.00
2018-04-19T05:46:50.687Z,6556.00
2018-04-19T05:47:50.685Z,6028.00
2018-04-19T05:48:50.679Z,5104.00
2018-04-19T05:49:50.682Z,4012.00
2018-04-19T05:50:50.673Z,3280.00
2018-04-19T05:51:50.674Z,3452.00
2018-04-19T05:52:50.671Z,3724.00
2018-04-19T05:53:50.667Z,3460.00
2018-04-19T05:54:50.663Z,3184.00
2018-04-19T05:55:50.653Z,3180.00
2018-04-19T05:56:50.655Z,3308.00
2018-04-19T05:57:50.652Z,3248.00
2018-04-19T05:58:50.649Z,3224.00
2018-04-19T05:59:50.647Z,3220.00
2018-04-19T06:00:50.643Z,3420.00
2018-04-19T06:01:50.636Z,3724.00
2018-04-19T06:02:50.638Z,4020.00
2018-04-19T06:03:50.629Z,3940.00
2018-04-19T06:04:50.633Z,4416.00
2018-04-19T06:05:50.626Z,4880.00
2018-04-19T06:06:50.623Z,4192.00
2018-04-19T06:07:50.619Z,3728.00
2018-04-19T06:08:50.618Z,3652.00
2018-04-19T06:09:50.611Z,3516.00
2018-04-19T06:10:50.605Z,3620.00
2018-04-19T06:11:50.601Z,3660.00
2018-04-19T06:12:50.607Z,3668.00
2018-04-19T06:13:50.616Z,3700.00
2018-04-19T06:14:50.596Z,4168.00
2018-04-19T06:15:50.640Z,4400.00
2018-04-19T06:16:50.593Z,5368.00
2018-04-19T06:17:50.583Z,5708.00
2018-04-19T06:18:50.575Z,8064.00
2018-04-19T06:19:50.589Z,8168.00
2018-04-19T06:20:50.576Z,7888.00
2018-04-19T06:21:50.565Z,6752.00
2018-04-19T06:22:50.569Z,5012.00
2018-04-19T06:23:50.559Z,3996.00
2018-04-19T06:24:50.572Z,4140.00
2018-04-19T06:25:50.555Z,4592.00
2018-04-19T06:26:50.552Z,5480.00
2018-04-19T06:27:50.554Z,6232.00
2018-04-19T06:28:50.541Z,5948.00
2018-04-19T06:29:50.544Z,4216.00
2018-04-19T06:30:50.535Z,3960.00
2018-04-19T06:31:50.532Z,3976.00
2018-04-19T06:32:50.526Z,4132.00
2018-04-19T06:33:50.525Z,4632.00
2018-04-19T06:34:50.522Z,6800.00
2018-04-19T06:35:50.520Z,9276.00
2018-04-19T06:36:50.515Z,9928.00
2018-04-19T06:37:50.511Z,6748.00
2018-04-19T06:38:50.514Z,4488.00
2018-04-19T06:39:50.503Z,4240.00
2018-04-19T06:40:50.499Z,4160.00
2018-04-19T06:41:50.500Z,4192.00
2018-04-19T06:42:50.494Z,4456.00
2018-04-19T06:43:50.495Z,4560.00
2018-04-19T06:44:50.490Z,4544.00
2018-04-19T06:45:50.481Z,4504.00
2018-04-19T06:46:50.478Z,4576.00
2018-04-19T06:47:51.092Z,4444.00
2018-04-19T06:48:50.480Z,5056.00
2018-04-19T06:49:50.468Z,5536.00
2018-04-19T06:50:50.470Z,5116.00
2018-04-19T06:51:50.461Z,5232.00
2018-04-19T06:52:50.460Z,4908.00
2018-04-19T06:53:50.459Z,4536.00
2018-04-19T06:54:50.459Z,5256.00
2018-04-19T06:55:50.456Z,5212.00
2018-04-19T06:56:50.447Z,4600.00
2018-04-19T06:57:50.449Z,4424.00
2018-04-19T06:58:50.447Z,4476.00
2018-04-19T06:59:50.435Z,4560.00
2018-04-19T07:00:50.433Z,4520.00
2018-04-19T07:01:50.431Z,4516.00
2018-04-19T07:02:50.427Z,4576.00
2018-04-19T07:03:50.428Z,4824.00
2018-04-19T07:04:50.424Z,4804.00
2018-04-19T07:05:50.417Z,5244.00
2018-04-19T07:06:50.410Z,4824.00
2018-04-19T07:07:50.407Z,4796.00
2018-04-19T07:08:50.423Z,4744.00
2018-04-19T07:09:50.434Z,4656.00
2018-04-19T07:10:50.400Z,4684.00
2018-04-19T07:11:50.400Z,4716.00
2018-04-19T07:12:50.396Z,4784.00
2018-04-19T07:13:50.390Z,4996.00
2018-04-19T07:14:50.387Z,5220.00
2018-04-19T07:15:50.384Z,5276.00
2018-04-19T07:16:50.379Z,7360.00
2018-04-19T07:17:50.377Z,7288.00
2018-04-19T07:18:50.373Z,6052.00
2018-04-19T07:19:50.370Z,5416.00
2018-04-19T07:20:50.362Z,5284.00
2018-04-19T07:21:50.360Z,5580.00
2018-04-19T07:22:50.358Z,6804.00
2018-04-19T07:23:50.367Z,8672.00
2018-04-19T07:24:50.355Z,13608.00
2018-04-19T07:25:50.388Z,20608.00
2018-04-19T07:26:50.341Z,14792.00
2018-04-19T07:27:50.340Z,10156.00
2018-04-19T07:28:50.352Z,12576.00
2018-04-19T07:29:50.340Z,8416.00
2018-04-19T07:30:50.334Z,6756.00
2018-04-19T07:31:50.327Z,7108.00
2018-04-19T07:32:50.328Z,8664.00
2018-04-19T07:33:50.325Z,8308.00
2018-04-19T07:34:50.321Z,9836.00
2018-04-19T07:35:50.321Z,11136.00
2018-04-19T07:36:50.317Z,11768.00
2018-04-19T07:37:50.315Z,13932.00
2018-04-19T07:38:50.324Z,14268.00
2018-04-19T07:39:50.308Z,17152.00
2018-04-19T07:40:50.307Z,20608.00
2018-04-19T07:41:50.301Z,18112.00
2018-04-19T07:42:50.299Z,16204.00
2018-04-19T07:43:50.296Z,16832.00
2018-04-19T07:44:50.301Z,16896.00
2018-04-19T07:45:50.296Z,19744.00
2018-04-19T07:46:50.294Z,13352.00
2018-04-19T07:47:50.297Z,16196.00
2018-04-19T07:48:50.288Z,26592.00
2018-04-19T07:49:50.297Z,19328.00
2018-04-19T07:50:50.293Z,11592.00
2018-04-19T07:51:50.287Z,9708.00
2018-04-19T07:52:50.287Z,9036.00
2018-04-19T07:53:50.289Z,7168.00
2018-04-19T07:54:50.285Z,7000.00
2018-04-19T07:55:52.097Z,7724.00
2018-04-19T07:56:51.133Z,7120.00
2018-04-19T07:57:52.754Z,6988.00
2018-04-19T07:58:51.633Z,8668.00
2018-04-19T07:59:52.934Z,11436.00
2018-04-19T08:00:50.294Z,12076.00
2018-04-19T08:01:50.490Z,19296.00
2018-04-19T08:02:50.283Z,35360.00
2018-04-19T08:03:50.281Z,40768.00
2018-04-19T08:04:50.283Z,42048.00
2018-04-19T08:05:50.283Z,41088.00
2018-04-19T08:06:50.285Z,42880.00
2018-04-19T08:07:50.291Z,46208.00
2018-04-19T08:08:50.285Z,45472.00
2018-04-19T08:09:50.287Z,47200.00
2018-04-19T08:10:50.284Z,47040.00
2018-04-19T08:11:50.287Z,46272.00
2018-04-19T08:12:50.293Z,46784.00
2018-04-19T08:13:50.289Z,46880.00
2018-04-19T08:14:50.293Z,45056.00
2018-04-19T08:15:50.297Z,47264.00
2018-04-19T08:16:50.302Z,49152.00
2018-04-19T08:17:50.303Z,50688.00
2018-04-19T08:18:50.320Z,52000.00
2018-04-19T08:19:50.309Z,50432.00
2018-04-19T08:20:50.310Z,49440.00
2018-04-19T08:21:50.343Z,48000.00
2018-04-19T08:22:50.322Z,50240.00
2018-04-19T08:23:50.323Z,51584.00
2018-04-19T08:24:50.330Z,51200.00
2018-04-19T08:25:50.337Z,53312.00
2018-04-19T08:26:50.342Z,52576.00
2018-04-19T08:27:50.351Z,54080.00
2018-04-19T08:28:50.360Z,54848.00
2018-04-19T08:29:50.375Z,51552.00
2018-04-19T08:30:50.368Z,52512.00
2018-04-19T08:31:50.381Z,54656.00
2018-04-19T08:32:50.379Z,54880.00
2018-04-19T08:33:50.385Z,54336.00
2018-04-19T08:34:50.396Z,54016.00
2018-04-19T08:35:50.410Z,53280.00
2018-04-19T08:36:50.414Z,53472.00
2018-04-19T08:37:50.421Z,56064.00
2018-04-19T08:38:50.428Z,56832.00
2018-04-19T08:39:50.438Z,60064.00
2018-04-19T08:40:50.439Z,57984.00
2018-04-19T08:41:50.453Z,55200.00
2018-04-19T08:42:50.456Z,55808.00
2018-04-19T08:43:50.464Z,55360.00
2018-04-19T08:44:50.474Z,55168.00
2018-04-19T08:45:50.478Z,55904.00
2018-04-19T08:46:50.491Z,56832.00
2018-04-19T08:47:50.506Z,54752.00
2018-04-19T08:48:50.516Z,54688.00
2018-04-19T08:49:50.519Z,55680.00
2018-04-19T08:50:50.523Z,56256.00
2018-04-19T08:51:50.539Z,53792.00
2018-04-19T08:52:50.544Z,50784.00
2018-04-19T08:53:50.556Z,52384.00
2018-04-19T08:54:50.562Z,54336.00
2018-04-19T08:55:50.572Z,50944.00
2018-04-19T08:56:50.577Z,49312.00
2018-04-19T08:57:50.592Z,53504.00
2018-04-19T08:58:50.601Z,55808.00
2018-04-19T08:59:50.623Z,55872.00
2018-04-19T09:00:50.620Z,57664.00
2018-04-19T09:01:50.636Z,58144.00
2018-04-19T09:02:50.635Z,38304.00
2018-04-19T09:03:50.648Z,51232.00
2018-04-19T09:04:50.655Z,23392.00
2018-04-19T09:05:50.663Z,21632.00
2018-04-19T09:06:50.682Z,46368.00
2018-04-19T09:07:50.696Z,56896.00
2018-04-19T09:08:50.698Z,51040.00
2018-04-19T09:09:50.713Z,61024.00
2018-04-19T09:10:50.723Z,63520.00
2018-04-19T09:11:50.733Z,61504.00
2018-04-19T09:12:50.741Z,58560.00
2018-04-19T09:13:50.756Z,60544.00
2018-04-19T09:14:50.760Z,63424.00
2018-04-19T09:15:50.807Z,63232.00
2018-04-19T09:16:50.784Z,64736.00
2018-04-19T09:17:50.788Z,67008.00
2018-04-19T09:18:50.805Z,67072.00
2018-04-19T09:19:50.816Z,65696.00
2018-04-19T09:20:50.825Z,63552.00
2018-04-19T09:21:50.832Z,65312.00
2018-04-19T09:22:50.845Z,68672.00
2018-04-19T09:23:50.856Z,67008.00
2018-04-19T09:24:50.866Z,65920.00
2018-04-19T09:25:50.873Z,60832.00
2018-04-19T09:26:50.888Z,58240.00
2018-04-19T09:27:50.899Z,60896.00
2018-04-19T09:28:50.907Z,63104.00
2018-04-19T09:29:50.920Z,67904.00
2018-04-19T09:30:50.929Z,70240.00
2018-04-19T09:31:50.947Z,67424.00
2018-04-19T09:32:50.954Z,69760.00
2018-04-19T09:33:50.965Z,72000.00
2018-04-19T09:34:50.978Z,71424.00
2018-04-19T09:35:50.987Z,70880.00
2018-04-19T09:36:51.003Z,70272.00
2018-04-19T09:37:51.013Z,72416.00
2018-04-19T09:38:51.018Z,71904.00
2018-04-19T09:39:51.031Z,69824.00
2018-04-19T09:40:51.046Z,69312.00
2018-04-19T09:41:51.064Z,71904.00
2018-04-19T09:42:51.068Z,74912.00
2018-04-19T09:43:51.082Z,75360.00
2018-04-19T09:44:51.091Z,73568.00
2018-04-19T09:45:51.100Z,73472.00
2018-04-19T09:46:51.112Z,75456.00
2018-04-19T09:47:51.125Z,76128.00
2018-04-19T09:48:51.143Z,74720.00
2018-04-19T09:49:51.152Z,75808.00
2018-04-19T09:50:51.161Z,76256.00
2018-04-19T09:51:51.182Z,75456.00
2018-04-19T09:52:51.183Z,75744.00
2018-04-19T09:53:51.284Z,76480.00
2018-04-19T09:54:51.211Z,76832.00
2018-04-19T09:55:51.220Z,77440.00
2018-04-19T09:56:51.229Z,77632.00
2018-04-19T09:57:51.241Z,76800.00
2018-04-19T09:58:51.260Z,77184.00
2018-04-19T09:59:51.264Z,77728.00
2018-04-19T10:00:51.278Z,77568.00
2018-04-19T10:01:51.294Z,80608.00
2018-04-19T10:02:51.314Z,80928.00
2018-04-19T10:03:51.316Z,78272.00
2018-04-19T10:04:51.326Z,72416.00
2018-04-19T10:05:51.343Z,77600.00
2018-04-19T10:06:51.390Z,80960.00
2018-04-19T10:07:51.367Z,81312.00
2018-04-19T10:08:51.380Z,80672.00
2018-04-19T10:09:51.384Z,82592.00
2018-04-19T10:10:51.396Z,82144.00
2018-04-19T10:11:51.411Z,77888.00
2018-04-19T10:12:51.431Z,72704.00
2018-04-19T10:13:51.442Z,69632.00
2018-04-19T10:14:51.465Z,77696.00
2018-04-19T10:15:51.480Z,83488.00
2018-04-19T10:16:51.474Z,80832.00
2018-04-19T10:17:51.489Z,79008.00
2018-04-19T10:18:51.499Z,80384.00
2018-04-19T10:19:51.514Z,76480.00
2018-04-19T10:20:51.532Z,75712.00
2018-04-19T10:21:51.540Z,82048.00
2018-04-19T10:22:51.561Z,84448.00
2018-04-19T10:23:51.570Z,83072.00
2018-04-19T10:24:51.572Z,84832.00
2018-04-19T10:25:51.585Z,86240.00
2018-04-19T10:26:51.599Z,87520.00
2018-04-19T10:27:51.652Z,87776.00
2018-04-19T10:28:51.624Z,86912.00
2018-04-19T10:29:51.641Z,85472.00
2018-04-19T10:30:51.666Z,85312.00
2018-04-19T10:31:51.662Z,81536.00
2018-04-19T10:32:52.239Z,79040.00
2018-04-19T10:33:51.709Z,80896.00
2018-04-19T10:34:51.704Z,84544.00
2018-04-19T10:35:51.717Z,84704.00
2018-04-19T10:36:51.730Z,84416.00
2018-04-19T10:37:51.741Z,81888.00
2018-04-19T10:38:51.754Z,81920.00
2018-04-19T10:39:51.762Z,83200.00
2018-04-19T10:40:51.786Z,79616.00
2018-04-19T10:41:51.792Z,76704.00
2018-04-19T10:42:51.806Z,78688.00
2018-04-19T10:43:51.821Z,82272.00
2018-04-19T10:44:51.835Z,84032.00
2018-04-19T10:45:51.845Z,83904.00
2018-04-19T10:46:51.857Z,83296.00
2018-04-19T10:47:51.874Z,81600.00
2018-04-19T10:48:51.886Z,80384.00
2018-04-19T10:49:51.912Z,81504.00
2018-04-19T10:50:51.913Z,82976.00
2018-04-19T10:51:51.936Z,82016.00
2018-04-19T10:52:51.937Z,81984.00
2018-04-19T10:53:51.957Z,83072.00
2018-04-19T10:54:51.977Z,81120.00
2018-04-19T10:55:51.989Z,79456.00
2018-04-19T10:56:51.994Z,81472.00
2018-04-19T10:57:52.018Z,81856.00
2018-04-19T10:58:52.025Z,81888.00
2018-04-19T10:59:52.038Z,79456.00
2018-04-19T11:00:52.057Z,82528.00
2018-04-19T11:01:52.068Z,90368.00
2018-04-19T11:02:52.080Z,90272.00
2018-04-19T11:03:52.092Z,85344.00
2018-04-19T11:04:52.105Z,84672.00
2018-04-19T11:05:52.121Z,80992.00
2018-04-19T11:06:52.131Z,80768.00
2018-04-19T11:07:52.144Z,82656.00
2018-04-19T11:08:52.164Z,82528.00
2018-04-19T11:09:52.177Z,82944.00
2018-04-19T11:10:52.190Z,86144.00
2018-04-19T11:11:52.198Z,87424.00
2018-04-19T11:12:52.214Z,85600.00
2018-04-19T11:13:52.231Z,87872.00
2018-04-19T11:14:52.241Z,89088.00
2018-04-19T11:15:52.265Z,87136.00
2018-04-19T11:16:52.269Z,82912.00
2018-04-19T11:17:52.292Z,85120.00
2018-04-19T11:18:52.296Z,90592.00
2018-04-19T11:19:52.303Z,85792.00
2018-04-19T11:20:52.324Z,80096.00
2018-04-19T11:21:52.336Z,78592.00
2018-04-19T11:22:52.414Z,85600.00
2018-04-19T11:23:52.359Z,88096.00
2018-04-19T11:24:52.378Z,89120.00
2018-04-19T11:25:52.388Z,87936.00
2018-04-19T11:26:52.399Z,80000.00
2018-04-19T11:27:52.420Z,85536.00
2018-04-19T11:28:52.425Z,87264.00
2018-04-19T11:29:52.442Z,89472.00
2018-04-19T11:30:52.459Z,86944.00
2018-04-19T11:31:52.469Z,85504.00
2018-04-19T11:32:52.477Z,86400.00
2018-04-19T11:33:52.488Z,79648.00
2018-04-19T11:34:52.500Z,74368.00
2018-04-19T11:35:52.518Z,76480.00
2018-04-19T11:36:52.535Z,83520.00
2018-04-19T11:37:52.553Z,82080.00
2018-04-19T11:38:52.555Z,78048.00
2018-04-19T11:39:52.571Z,79040.00
2018-04-19T11:40:52.589Z,80128.00
2018-04-19T11:41:52.599Z,86912.00
2018-04-19T11:42:52.614Z,88864.00
2018-04-19T11:43:52.639Z,88160.00
2018-04-19T11:44:52.633Z,89056.00
2018-04-19T11:45:52.648Z,88640.00
2018-04-19T11:46:52.658Z,82624.00
2018-04-19T11:47:52.677Z,81696.00
2018-04-19T11:48:52.689Z,85760.00
2018-04-19T11:49:52.731Z,87008.00
2018-04-19T11:50:52.715Z,87808.00
2018-04-19T11:51:52.726Z,87616.00
2018-04-19T11:52:52.741Z,88256.00
2018-04-19T11:53:52.754Z,84608.00
2018-04-19T11:54:52.768Z,89216.00
2018-04-19T11:55:52.782Z,89600.00
2018-04-19T11:56:52.793Z,92992.00
2018-04-19T11:57:52.809Z,94944.00
2018-04-19T11:58:52.816Z,93632.00
2018-04-19T11:59:52.830Z,79968.00
2018-04-19T12:00:52.888Z,79744.00
2018-04-19T12:01:52.862Z,80800.00
2018-04-19T12:02:52.872Z,84032.00
2018-04-19T12:03:52.884Z,81664.00
2018-04-19T12:04:52.896Z,86816.00
2018-04-19T12:05:52.913Z,86592.00
2018-04-19T12:06:52.926Z,85472.00
2018-04-19T12:07:52.942Z,84288.00
2018-04-19T12:08:52.951Z,84416.00
2018-04-19T12:09:52.965Z,94720.00
2018-04-19T12:10:52.982Z,97600.00
2018-04-19T12:11:52.988Z,96512.00
2018-04-19T12:12:53.004Z,97696.00
2018-04-19T12:13:53.013Z,99424.00
2018-04-19T12:14:53.027Z,97312.00
2018-04-19T12:15:53.043Z,100544.00
2018-04-19T12:16:53.052Z,102304.00
2018-04-19T12:17:53.059Z,103296.00
2018-04-19T12:18:53.071Z,96320.00
2018-04-19T12:19:53.080Z,86432.00
2018-04-19T12:20:53.098Z,68096.00
2018-04-19T12:21:53.112Z,72704.00
2018-04-19T12:22:53.119Z,75200.00
2018-04-19T12:23:53.131Z,75552.00
2018-04-19T12:24:53.139Z,71296.00
2018-04-19T12:25:53.152Z,69024.00
2018-04-19T12:26:53.163Z,71680.00
2018-04-19T12:27:53.179Z,75936.00
2018-04-19T12:28:53.189Z,80768.00
2018-04-19T12:29:53.201Z,81856.00
2018-04-19T12:30:53.210Z,83712.00
2018-04-19T12:31:53.217Z,82944.00
2018-04-19T12:32:53.230Z,72768.00
2018-04-19T12:33:53.237Z,79296.00
2018-04-19T12:34:53.255Z,75520.00
2018-04-19T12:35:53.268Z,75008.00
2018-04-19T12:36:53.278Z,78048.00
2018-04-19T12:37:53.284Z,81760.00
2018-04-19T12:38:53.312Z,88832.00
2018-04-19T12:39:53.300Z,77536.00